Flight Track Log - Related Links

Times and Time Zones

All times are in EDT time to prevent confusion due to time zone crossing. See the N276C flight status page for this flight to view local times or setup timezone preferences in your user account.

Time Position Orientation Groundspeed Altitude Reporting Facility
EDT Latitude Longitude Course Direction KTS MPH feet Rate Location/Type
Sat 01:12:00 PM 41.3950 -70.3078 298° West  Level Estimated
Sat 01:13:00 PM 41.4041 -70.3584 284° West  Level FlightAware Approximate
Sat 01:14:00 PM 41.4132 -70.4090 283° West  Level FlightAware Approximate
Sat 01:15:00 PM 41.4223 -70.4596 283° West  Level FlightAware Approximate
Sat 01:16:00 PM 41.4313 -70.5103 283° West  Level FlightAware Approximate
Sat 01:17:00 PM 41.4403 -70.5609 283° West  Level FlightAware Approximate
Sat 01:17:54 PM 41.3967 -70.5417 290° West 151 174 6,000  Level Boston Center
Sat 01:18:00 PM 41.4657 -70.6005 294° West  Level Estimated
Sat 01:18:55 PM 41.4142 -70.5911 295° West 147 169 6,000  Level Boston Center
Sat 01:19:00 PM 41.4732 -70.6516 281° West  Level FlightAware Approximate
Sat 01:19:56 PM 41.4336 -70.6403 298° West 150 173 6,000  Level Boston Center
Sat 01:20:00 PM 41.4991 -70.6906 302° West  Level Estimated
Sat 01:20:56 PM 41.4511 -70.6897 295° West 147 169 6,000  Level Boston Center
Sat 01:21:00 PM 41.5121 -70.7397 290° West  Level FlightAware Approximate
Sat 01:21:57 PM 41.4728 -70.7389 300° West 147 169 6,000  Level Boston Center
Sat 01:22:00 PM 41.5252 -70.7889 290° West  Level FlightAware Approximate
Sat 01:23:00 PM 41.5382 -70.8380 290° West  Level FlightAware Approximate
Sat 01:23:05 PM 41.4922 -70.7939 295° West 147 169 6,000  Level Boston Center
Sat 01:24:06 PM 41.5097 -70.8433 295° West 151 174 6,000  Level Boston Center
Sat 01:25:04 PM 41.5269 -70.8956 294° West 146 168 6,000  Level Boston Center
Sat 01:26:07 PM 41.5464 -70.9450 298° West 148 170 6,000  Level Boston Center
Sat 01:27:02 PM 41.5617 -70.9892 295° West 147 169 6,000  Level Boston Center
Sat 01:28:02 PM 41.5831 -71.0386 300° West 150 173 6,000  Level Boston Center
Sat 01:29:01 PM 41.5961 -71.0883 289° West 149 171 6,000  Level Boston Center
Sat 01:30:02 PM 41.6197 -71.1406 301° West 147 169 6,000  Level Boston Center
Sat 01:31:03 PM 41.6350 -71.1903 292° West 148 170 6,000  Level Boston Center
Sat 01:32:04 PM 41.6542 -71.2369 299° West 148 170 6,000  Level Boston Center
Sat 01:33:10 PM 41.6733 -71.2922 295° West 145 167 6,000  Level Boston Center
Sat 01:34:10 PM 41.6906 -71.3447 294° West 144 166 6,000  Level Boston Center
Sat 01:35:05 PM 41.7078 -71.3861 299° West 145 167 6,000  Level Boston Center
Sat 01:36:20 PM 41.7292 -71.4442 296° West 141 162 6,000  Level Boston Center
Sat 01:37:21 PM 41.7544 -71.4856 309° West 145 167 6,000  Level Boston Center
Sat 01:38:09 PM 41.7736 -71.5214 306° West 142 163 6,000  Level Boston Center
Sat 01:39:10 PM 41.7989 -71.5628 309° West 144 166 6,000  Level Boston Center
Sat 01:40:16 PM 41.8222 -71.6100 304° West 141 162 6,000  Level Boston Center
Sat 01:41:16 PM 41.8475 -71.6514 309° West 140 161 6,000  Level Boston Center
Sat 01:42:17 PM 41.8706 -71.6958 305° West 143 165 6,000  Level Boston Center
Sat 01:43:18 PM 41.8939 -71.7400 305° West 139 160 6,000  Level Boston Center
Sat 01:43:36 PM 41.9044 -71.7539 316° Northwest 139 160 6,000  Level Boston Center
Sat 01:44:43 PM 41.9275 -71.7983 305° West 139 160 6,000  Level Boston Center
Sat 01:45:50 PM 41.9550 -71.8456 308° West 140 161 6,000  Level Boston Center
Sat 01:46:53 PM 41.9944 -71.8508 354° North 140 161 6,000 -205 Level Boston Center
Sat 01:47:47 PM 42.0319 -71.8531 357° North 153 176 5,600 -421 Descending Boston Center
Sat 01:48:47 PM 42.0653 -71.8219 35° Northeast 174 200 5,200 -470 Descending Boston Center
Sat 01:49:42 PM 42.0900 -71.7769 53° Northeast 164 189 4,700 -569 Descending Boston Center
Sat 01:50:43 PM 42.1189 -71.7347 47° Northeast 149 171 4,100 -595 Descending Boston Center
Sat 01:51:43 PM 42.1522 -71.7261 11° North 131 151 3,500 -472 Descending Boston Center
Sat 01:52:50 PM 42.1711 -71.7622 305° West 104 120 3,100 -425 Descending Boston Center
Sat 01:53:50 PM 42.1942 -71.7900 318° Northwest 106 122 2,600 -541 Descending Boston Center
Sat 01:54:52 PM 42.2175 -71.8206 316° Northwest 114 131 2,000 -537 Descending Boston Center
Sat 01:55:53 PM 42.2406 -71.8456 321° Northwest 110 127 1,500 -446 Descending Boston Center
Sat 01:56:53 PM 42.2594 -71.8678 319° Northwest 104 120 1,100 -198 Descending Boston Center
Sat 01:57:54 PM 42.2697 -71.8761 329° Northwest 104 120 1,100  Level Boston Center

Login

Don't have an account? Register now (free) for customized features, flight alerts, and more!